Time;durP1;ratioP1;P1;durP2;ratioP2;P2;SDS_P1;SDS_P2;PMS_P1;PMS_P2;Temp;Humidity;BMP_temperature;BMP_pressure;BME280_temperature;BME280_humidity;BME280_pressure;Samples;Min_cycle;Max_cycle;Signal;HPM_P1;HPM_P2
2022/01/29 00:01:47;;;;;;;110.03;98.25;;;5.80;99.90;;;;;;4910510;29;20296;-88
2022/01/29 00:04:46;;;;;;;118.85;106.80;;;5.80;99.90;;;;;;4916998;29;20196;-88
2022/01/29 00:10:48;;;;;;;99.75;75.47;;;5.70;99.90;;;;;;4917765;29;20184;-88
2022/01/29 00:13:52;;;;;;;;;;;;;;;;;;;;;
2022/01/29 00:17:29;;;;;;;95.20;62.03;;;5.80;99.90;;;;;;4917397;29;20188;-87
2022/01/29 00:19:59;;;;;;;97.28;77.35;;;5.80;99.90;;;;;;4913783;29;20221;-87
2022/01/29 00:22:53;;;;;;;105.63;92.82;;;5.90;99.90;;;;;;4917663;29;20293;-88
2022/01/29 00:26:05;;;;;;;103.10;89.65;;;5.90;99.90;;;;;;4931967;23;20208;-88
2022/01/29 00:29:20;;;;;;;;;;;;;;;;;;;;;
2022/01/29 00:36:08;;;;;;;;;;;;;;;;;;;;;
2022/01/29 00:39:18;;;;;;;100.65;85.07;;;6.10;99.90;;;;;;4877172;29;20200;-88
2022/01/29 00:41:44;;;;;;;110.45;94.05;;;6.20;99.90;;;;;;4860586;29;20207;-89
2022/01/29 00:44:51;;;;;;;;;;;;;;;;;;;;;
2022/01/29 00:47:53;;;;;;;111.50;96.20;;;6.30;99.90;;;;;;4917530;29;20165;-88
2022/01/29 00:51:00;;;;;;;111.75;99.50;;;6.30;99.90;;;;;;4917192;29;20168;-88
2022/01/29 00:53:29;;;;;;;119.60;107.57;;;6.30;99.90;;;;;;4915583;29;20272;-88
2022/01/29 00:56:23;;;;;;;122.60;109.90;;;6.30;99.90;;;;;;4915887;29;20197;-88
2022/01/29 01:02:09;;;;;;;124.85;112.00;;;6.30;99.90;;;;;;4916682;29;20229;-88
2022/01/29 01:04:57;;;;;;;129.13;116.57;;;6.30;99.90;;;;;;4916788;29;20204;-88
2022/01/29 01:07:39;;;;;;;124.63;112.18;;;6.30;99.90;;;;;;4917241;29;20170;-88
2022/01/29 01:10:28;;;;;;;112.68;98.22;;;6.40;99.90;;;;;;4917592;29;20192;-88
2022/01/29 01:12:59;;;;;;;129.40;116.60;;;6.40;99.90;;;;;;4934442;29;20240;-88
2022/01/29 01:15:28;;;;;;;105.95;93.40;;;6.50;99.90;;;;;;4936577;29;20193;-88
2022/01/29 01:21:33;;;;;;;154.30;139.75;;;6.60;99.90;;;;;;4920729;29;20196;-88
2022/01/29 01:24:13;;;;;;;117.35;105.15;;;6.60;99.90;;;;;;4921670;29;20562;-88
2022/01/29 01:26:55;;;;;;;131.88;118.38;;;6.60;99.90;;;;;;4921146;29;20205;-88
2022/01/29 01:30:06;;;;;;;114.80;98.18;;;6.60;99.90;;;;;;4935387;29;20594;-88
2022/01/29 01:32:50;;;;;;;;;;;;;;;;;;;;;
2022/01/29 01:35:42;;;;;;;136.15;119.85;;;6.60;99.90;;;;;;4920915;29;20660;-88
2022/01/29 01:38:27;;;;;;;116.00;102.47;;;6.60;99.90;;;;;;4919822;29;20204;-88
2022/01/29 01:41:19;;;;;;;110.97;98.18;;;6.60;99.90;;;;;;4936013;29;20173;-88
2022/01/29 01:46:51;;;;;;;107.95;78.68;;;6.60;99.90;;;;;;5000614;23;20239;-87
2022/01/29 01:49:30;;;;;;;118.43;105.60;;;6.60;99.90;;;;;;4943237;29;20160;-86
2022/01/29 01:52:01;;;;;;;122.85;109.97;;;6.60;99.90;;;;;;4943801;29;20242;-85
2022/01/29 01:54:29;;;;;;;111.57;98.60;;;6.60;99.90;;;;;;4942148;29;20192;-87
2022/01/29 01:56:58;;;;;;;123.38;110.20;;;6.70;99.90;;;;;;4943017;29;20700;-87
2022/01/29 01:59:28;;;;;;;146.43;132.52;;;6.60;99.90;;;;;;4943533;29;20168;-87
2022/01/29 02:01:54;;;;;;;163.13;148.25;;;6.60;99.90;;;;;;4943131;29;20541;-86
2022/01/29 02:04:30;;;;;;;123.47;110.43;;;6.70;99.90;;;;;;4943094;29;20172;-86
2022/01/29 02:07:09;;;;;;;;;;;;;;;;;;;;;
2022/01/29 02:09:39;;;;;;;158.50;143.73;;;6.60;99.90;;;;;;4943371;29;20249;-85
2022/01/29 02:12:09;;;;;;;119.03;105.68;;;6.60;99.90;;;;;;4943977;29;20216;-86
2022/01/29 02:14:38;;;;;;;124.70;109.70;;;6.60;99.90;;;;;;4941932;29;20196;-86
2022/01/29 02:17:16;;;;;;;146.10;132.00;;;6.60;99.90;;;;;;4943223;29;20176;-86
2022/01/29 02:19:42;;;;;;;147.77;134.15;;;6.70;99.90;;;;;;4942052;29;20183;-86
2022/01/29 02:22:08;;;;;;;158.00;144.23;;;6.70;99.90;;;;;;4942481;29;20196;-87
2022/01/29 02:24:34;;;;;;;196.30;180.07;;;6.70;99.90;;;;;;4941523;29;20560;-86
2022/01/29 02:27:13;;;;;;;205.25;189.18;;;6.70;99.90;;;;;;4942185;29;20417;-87
2022/01/29 02:29:39;;;;;;;160.63;146.57;;;6.70;99.90;;;;;;4941402;29;20167;-87
2022/01/29 02:32:07;;;;;;;110.67;89.20;;;6.70;99.90;;;;;;4941539;29;20255;-87
2022/01/29 02:34:44;;;;;;;112.38;92.07;;;6.80;99.90;;;;;;4940730;29;20940;-86
2022/01/29 02:37:11;;;;;;;139.27;125.60;;;6.80;99.90;;;;;;4942224;29;20157;-87
2022/01/29 02:39:38;;;;;;;132.25;118.68;;;6.80;99.90;;;;;;4941883;29;20165;-86
2022/01/29 02:42:22;;;;;;;117.05;98.60;;;6.70;99.90;;;;;;4941708;29;20196;-87
2022/01/29 02:44:54;;;;;;;146.85;132.52;;;6.80;99.90;;;;;;4942483;29;20204;-87
2022/01/29 02:47:30;;;;;;;173.82;158.75;;;6.80;99.90;;;;;;4940820;29;20192;-87
2022/01/29 02:53:15;;;;;;;151.57;136.80;;;6.80;99.90;;;;;;4942148;29;20691;-87
2022/01/29 02:55:41;;;;;;;126.95;113.80;;;6.80;99.90;;;;;;4941372;29;20208;-87
2022/01/29 02:58:08;;;;;;;123.95;111.35;;;6.90;99.90;;;;;;4942141;29;20196;-87
2022/01/29 03:00:39;;;;;;;191.98;176.55;;;6.80;99.90;;;;;;4925433;29;20172;-87
2022/01/29 03:03:05;;;;;;;164.63;149.93;;;6.80;99.90;;;;;;4941004;29;20195;-87
2022/01/29 03:05:31;;;;;;;181.50;166.32;;;6.80;99.90;;;;;;4940624;29;20192;-87
2022/01/29 03:08:07;;;;;;;155.47;141.13;;;6.80;99.90;;;;;;4939709;29;20640;-87
2022/01/29 03:10:33;;;;;;;162.05;147.55;;;6.90;99.90;;;;;;4941108;29;20412;-87
2022/01/29 03:13:07;;;;;;;164.07;149.43;;;6.90;99.90;;;;;;4940377;29;20172;-87
2022/01/29 03:15:33;;;;;;;176.93;161.30;;;6.90;99.90;;;;;;4940228;29;20199;-87
2022/01/29 03:18:24;;;;;;;168.00;153.07;;;6.80;99.90;;;;;;4940438;29;20672;-86
2022/01/29 03:20:50;;;;;;;147.68;133.70;;;6.90;99.90;;;;;;4940751;29;20211;-87
2022/01/29 03:23:27;;;;;;;162.15;148.07;;;6.90;99.90;;;;;;4939631;29;20173;-87
2022/01/29 03:26:05;;;;;;;150.20;136.43;;;6.90;99.90;;;;;;4940041;29;20287;-87
2022/01/29 03:28:44;;;;;;;140.68;127.13;;;6.90;99.90;;;;;;4939888;29;20751;-87
2022/01/29 03:31:13;;;;;;;145.13;131.05;;;6.90;99.90;;;;;;4940049;29;20180;-87
2022/01/29 03:33:38;;;;;;;127.32;114.13;;;6.90;99.90;;;;;;4940383;29;20172;-87
2022/01/29 03:36:05;;;;;;;131.80;118.53;;;6.90;99.90;;;;;;4938798;29;20735;-87
2022/01/29 03:38:31;;;;;;;133.25;120.00;;;6.90;99.90;;;;;;4940549;29;20408;-87
2022/01/29 03:40:59;;;;;;;115.63;102.97;;;6.90;99.90;;;;;;4938776;29;20173;-87
2022/01/29 03:43:44;;;;;;;106.78;84.88;;;6.90;99.90;;;;;;4940593;29;20516;-87
2022/01/29 03:46:13;;;;;;;106.22;71.50;;;6.90;99.90;;;;;;4941119;29;20184;-87
2022/01/29 03:48:42;;;;;;;104.47;69.43;;;6.90;99.90;;;;;;4941010;29;20176;-87
2022/01/29 03:51:10;;;;;;;103.80;65.03;;;6.80;99.90;;;;;;4940680;29;20165;-87
2022/01/29 03:53:36;;;;;;;97.82;63.30;;;6.80;99.90;;;;;;4940245;29;20204;-87
2022/01/29 03:56:01;;;;;;;100.00;66.47;;;6.80;99.90;;;;;;4938850;29;20334;-87
2022/01/29 03:58:30;;;;;;;97.63;62.40;;;6.80;99.90;;;;;;4940327;29;20223;-87
2022/01/29 04:00:56;;;;;;;96.00;62.13;;;6.80;99.90;;;;;;4940135;29;20177;-87
2022/01/29 04:03:25;;;;;;;100.20;58.10;;;6.80;99.90;;;;;;4940551;29;20561;-87
2022/01/29 04:06:06;;;;;;;99.68;67.47;;;6.80;99.90;;;;;;4940404;29;20189;-87
2022/01/29 04:08:39;;;;;;;105.30;70.85;;;6.90;99.90;;;;;;4939924;29;20157;-87
2022/01/29 04:11:06;;;;;;;100.82;74.60;;;6.80;99.90;;;;;;4939732;29;20149;-87
2022/01/29 04:13:36;;;;;;;98.55;73.38;;;6.80;99.90;;;;;;4938928;29;20184;-87
2022/01/29 04:16:02;;;;;;;94.90;62.38;;;6.90;99.90;;;;;;4939646;29;20204;-87
2022/01/29 04:18:30;;;;;;;98.77;65.23;;;6.90;99.90;;;;;;4939772;29;20180;-87
2022/01/29 04:20:56;;;;;;;99.10;65.68;;;6.90;99.90;;;;;;4940367;29;20168;-87
2022/01/29 04:23:21;;;;;;;95.93;54.60;;;6.90;99.90;;;;;;4938935;29;20184;-87
2022/01/29 04:25:55;;;;;;;96.50;66.53;;;6.90;99.90;;;;;;4940259;29;20196;-87
2022/01/29 04:28:24;;;;;;;92.32;58.30;;;6.90;99.90;;;;;;4940184;29;20160;-87
2022/01/29 04:30:58;;;;;;;91.43;52.55;;;6.90;99.90;;;;;;4938830;29;20585;-87
2022/01/29 04:33:30;;;;;;;90.43;53.88;;;6.90;99.90;;;;;;4939267;29;20170;-87
2022/01/29 04:36:08;;;;;;;97.20;58.75;;;6.90;99.90;;;;;;4939246;29;20220;-87
2022/01/29 04:38:34;;;;;;;94.85;71.43;;;6.90;99.90;;;;;;4939236;29;20160;-87
2022/01/29 04:41:05;;;;;;;97.00;68.87;;;6.80;99.90;;;;;;4939213;29;20200;-87
2022/01/29 04:43:33;;;;;;;95.18;59.58;;;6.80;99.90;;;;;;4939762;29;20439;-87
2022/01/29 04:46:06;;;;;;;97.93;77.70;;;6.90;99.90;;;;;;4937798;29;20665;-87
2022/01/29 04:48:40;;;;;;;98.97;70.75;;;6.90;99.90;;;;;;4939298;29;20556;-87
2022/01/29 04:51:07;;;;;;;117.95;105.63;;;6.90;99.90;;;;;;4938412;29;20176;-87
2022/01/29 04:53:32;;;;;;;101.18;89.03;;;6.90;99.90;;;;;;4938706;29;20502;-87
2022/01/29 04:55:58;;;;;;;97.07;76.10;;;6.80;99.90;;;;;;4939767;29;20247;-87
2022/01/29 04:58:26;;;;;;;97.43;72.13;;;6.90;99.90;;;;;;4939542;29;20408;-87
2022/01/29 05:00:58;;;;;;;107.82;93.57;;;6.90;99.90;;;;;;4939027;29;20235;-87
2022/01/29 05:03:24;;;;;;;98.35;80.93;;;6.90;99.90;;;;;;4939634;29;20313;-87
2022/01/29 05:05:53;;;;;;;101.17;83.57;;;6.90;99.90;;;;;;4937575;29;20216;-87
2022/01/29 05:08:22;;;;;;;99.47;75.95;;;6.90;99.90;;;;;;4937679;29;20176;-87
2022/01/29 05:10:47;;;;;;;99.72;83.50;;;6.90;99.90;;;;;;4938982;29;20191;-86
2022/01/29 05:13:25;;;;;;;103.10;88.87;;;7.00;99.90;;;;;;4939597;29;20243;-87
2022/01/29 05:16:12;;;;;;;107.97;96.22;;;6.90;99.90;;;;;;4938391;29;20219;-87
2022/01/29 05:27:05;;;;;;;110.45;99.07;;;7.00;99.90;;;;;;4939166;29;20203;-87
2022/01/29 05:29:32;;;;;;;149.88;136.57;;;7.00;99.90;;;;;;4938371;29;20252;-86
2022/01/29 05:32:15;;;;;;;164.88;151.30;;;7.00;99.90;;;;;;4939375;29;20161;-87
2022/01/29 05:34:46;;;;;;;144.65;131.75;;;7.00;99.90;;;;;;4937816;29;20211;-87
2022/01/29 05:37:12;;;;;;;169.32;155.77;;;7.00;99.90;;;;;;4938881;29;20169;-87
2022/01/29 05:39:38;;;;;;;139.93;127.60;;;7.00;99.90;;;;;;4939216;29;20173;-87
2022/01/29 05:42:04;;;;;;;166.10;152.97;;;7.00;99.90;;;;;;4938440;29;20676;-87
2022/01/29 05:44:48;;;;;;;162.07;148.90;;;7.00;99.90;;;;;;4938874;29;20193;-87
2022/01/29 05:47:16;;;;;;;129.75;118.10;;;7.10;99.90;;;;;;4938023;29;20184;-87
2022/01/29 05:49:44;;;;;;;177.60;164.15;;;7.10;99.90;;;;;;4939005;29;20188;-87
2022/01/29 05:52:10;;;;;;;149.77;137.38;;;7.20;99.90;;;;;;4938801;29;20200;-87
2022/01/29 05:54:38;;;;;;;165.87;152.97;;;7.20;99.90;;;;;;4939134;29;20188;-87
2022/01/29 05:57:12;;;;;;;134.25;122.45;;;7.20;99.90;;;;;;4938963;29;20524;-87
2022/01/29 05:59:47;;;;;;;137.00;124.97;;;7.20;99.90;;;;;;4943192;29;20513;-87
2022/01/29 06:02:13;;;;;;;148.32;135.85;;;7.20;99.90;;;;;;4943760;29;20188;-87
2022/01/29 06:04:38;;;;;;;154.17;141.77;;;7.20;99.90;;;;;;4942189;29;20280;-87
2022/01/29 06:07:04;;;;;;;196.83;182.43;;;7.20;99.90;;;;;;4942093;29;20201;-87
2022/01/29 06:09:30;;;;;;;154.23;141.87;;;7.20;99.90;;;;;;4943322;29;20165;-87
2022/01/29 06:11:55;;;;;;;159.73;146.77;;;7.20;99.90;;;;;;4943043;29;20172;-87
2022/01/29 06:14:21;;;;;;;131.47;119.80;;;7.20;99.90;;;;;;4942829;29;20203;-87
2022/01/29 06:16:47;;;;;;;138.60;126.63;;;7.20;99.90;;;;;;4943772;29;20169;-87
2022/01/29 06:19:13;;;;;;;150.80;138.03;;;7.20;99.90;;;;;;4942663;29;20173;-87
2022/01/29 06:21:38;;;;;;;173.13;159.53;;;7.30;99.90;;;;;;4942332;29;20193;-87
2022/01/29 06:24:16;;;;;;;126.47;114.63;;;7.30;99.90;;;;;;4941949;29;20420;-86
2022/01/29 06:26:42;;;;;;;131.30;119.47;;;7.20;99.90;;;;;;4942166;29;20172;-87
2022/01/29 06:29:08;;;;;;;159.23;145.83;;;7.20;99.90;;;;;;4943016;29;20164;-87
2022/01/29 06:32:02;;;;;;;122.33;110.97;;;7.30;99.90;;;;;;4942230;29;20172;-87
2022/01/29 06:35:19;;;;;;;118.25;106.22;;;7.30;99.90;;;;;;4941928;29;20209;-87
2022/01/29 06:37:56;;;;;;;94.97;84.40;;;7.30;99.90;;;;;;4941844;29;20187;-87
2022/01/29 06:40:50;;;;;;;134.25;122.30;;;7.30;99.90;;;;;;4941274;29;20609;-87
2022/01/29 06:43:33;;;;;;;;;;;;;;;;;;;;;
2022/01/29 06:46:23;;;;;;;104.32;93.53;;;7.30;99.90;;;;;;4942540;29;20252;-87
2022/01/29 06:56:23;;;;;;;95.47;81.85;;;7.30;99.90;;;;;;4877345;29;20686;-87
2022/01/29 06:59:43;;;;;;;;;;;;;;;;;;;;;
2022/01/29 07:02:18;;;;;;;97.93;84.82;;;7.30;99.90;;;;;;4850031;29;20208;-87
2022/01/29 07:05:05;;;;;;;94.25;81.65;;;7.40;99.90;;;;;;4940750;29;20567;-87
2022/01/29 07:07:52;;;;;;;;;;;;;;;;;;;;;
2022/01/29 07:10:53;;;;;;;93.55;80.97;;;7.40;99.90;;;;;;4941307;29;20236;-87
2022/01/29 07:31:03;;;;;;;102.43;91.65;;;7.50;99.90;;;;;;4883756;29;20175;-87
2022/01/29 07:36:33;;;;;;;102.90;92.22;;;7.50;99.90;;;;;;4956199;23;20318;-86
2022/01/29 07:39:08;;;;;;;99.50;88.88;;;7.60;99.90;;;;;;4940517;29;20189;-87
2022/01/29 07:41:43;;;;;;;107.97;96.97;;;7.60;99.90;;;;;;4942165;29;20680;-87
2022/01/29 07:44:11;;;;;;;121.40;109.80;;;7.60;99.90;;;;;;4941360;29;20153;-87
2022/01/29 07:49:50;;;;;;;135.48;123.32;;;7.60;99.90;;;;;;4012152;27;20232;-87
2022/01/29 07:56:05;;;;;;;108.15;96.97;;;7.70;99.90;;;;;;4918833;29;20267;-86
2022/01/29 07:59:04;;;;;;;114.13;102.93;;;7.70;99.90;;;;;;4917298;29;20177;-86
2022/01/29 08:01:41;;;;;;;120.07;108.60;;;7.70;99.90;;;;;;4916977;29;20216;-87
2022/01/29 08:12:47;;;;;;;136.55;124.57;;;7.80;99.90;;;;;;4451636;23;20223;-87
2022/01/29 08:18:24;;;;;;;;;;;;;;;;;;;;;
2022/01/29 08:21:34;;;;;;;131.90;119.50;;;7.90;99.90;;;;;;4936877;29;20160;-87
2022/01/29 08:24:33;;;;;;;119.25;107.72;;;8.00;99.90;;;;;;4916976;29;20634;-87
2022/01/29 08:28:06;;;;;;;;;;;;;;;;;;;;;
2022/01/29 08:37:35;;;;;;;100.47;89.47;;;8.00;99.90;;;;;;4917307;29;20179;-88
2022/01/29 08:43:52;;;;;;;102.00;91.30;;;8.00;99.90;;;;;;4888866;29;20181;-87
2022/01/29 08:49:40;;;;;;;113.28;102.05;;;8.10;99.90;;;;;;4937158;23;20244;-87
2022/01/29 08:53:08;;;;;;;;;;;;;;;;;;;;;
2022/01/29 09:02:55;;;;;;;92.00;71.05;;;8.20;99.90;;;;;;4896092;29;20721;-87
2022/01/29 09:40:21;;;;;;;82.30;42.15;;;8.70;99.90;;;;;;4880524;29;20186;-89
2022/01/29 09:43:25;;;;;;;80.57;36.78;;;8.90;99.90;;;;;;4865708;29;20225;-91
2022/01/29 09:46:23;;;;;;;77.93;34.75;;;9.00;99.90;;;;;;4935130;29;20196;-86
2022/01/29 09:54:59;;;;;;;77.80;33.53;;;9.20;99.90;;;;;;4939909;29;20289;-84
2022/01/29 09:57:28;;;;;;;81.88;42.42;;;9.30;99.90;;;;;;4939747;29;20230;-86
2022/01/29 10:00:02;;;;;;;88.60;64.50;;;9.40;99.90;;;;;;4938450;29;20290;-87
2022/01/29 10:02:32;;;;;;;91.07;72.53;;;9.40;99.90;;;;;;4939331;29;20239;-88
2022/01/29 10:05:12;;;;;;;90.57;70.72;;;9.30;99.90;;;;;;4939006;29;20180;-87
2022/01/29 10:07:41;;;;;;;92.88;73.72;;;9.40;99.90;;;;;;4939401;29;20528;-85
2022/01/29 10:10:18;;;;;;;90.82;71.95;;;9.40;99.90;;;;;;4937744;29;20579;-86
2022/01/29 10:12:46;;;;;;;92.05;76.90;;;9.40;99.90;;;;;;4937952;29;20259;-86
2022/01/29 10:15:15;;;;;;;96.82;78.43;;;9.50;99.90;;;;;;4939563;29;20660;-85
2022/01/29 10:17:48;;;;;;;91.22;70.25;;;9.50;99.90;;;;;;4939382;29;20296;-87
2022/01/29 10:20:56;;;;;;;97.82;76.53;;;9.60;99.90;;;;;;4940163;29;20195;-86
2022/01/29 10:23:30;;;;;;;81.22;42.00;;;9.60;99.90;;;;;;4938498;29;20216;-86
2022/01/29 10:26:00;;;;;;;88.32;68.00;;;9.60;99.90;;;;;;4938417;29;20652;-87
2022/01/29 10:28:27;;;;;;;88.07;63.42;;;9.60;99.90;;;;;;4939028;29;20176;-87
2022/01/29 10:30:57;;;;;;;83.55;48.95;;;9.60;99.90;;;;;;4938809;29;20644;-87
2022/01/29 10:33:47;;;;;;;82.55;47.90;;;9.70;99.90;;;;;;4939058;29;20173;-87
2022/01/29 10:36:22;;;;;;;83.15;43.05;;;9.70;99.90;;;;;;4937395;29;20192;-86
2022/01/29 10:38:52;;;;;;;84.80;53.97;;;9.70;99.90;;;;;;4937360;29;20707;-87
2022/01/29 10:41:29;;;;;;;85.63;56.78;;;9.70;99.90;;;;;;4939405;29;20188;-86
2022/01/29 10:44:08;;;;;;;79.43;41.10;;;9.70;99.90;;;;;;4936330;29;20161;-86
2022/01/29 10:47:02;;;;;;;79.50;39.63;;;9.80;99.90;;;;;;4939473;29;20181;-86
2022/01/29 10:53:43;;;;;;;83.68;50.90;;;9.90;99.90;;;;;;4898823;29;20178;-87
2022/01/29 10:56:35;;;;;;;78.57;38.33;;;10.00;99.90;;;;;;4859908;29;20211;-86
2022/01/29 10:59:38;;;;;;;76.93;30.23;;;10.10;99.90;;;;;;4824279;29;20249;-87
2022/01/29 11:02:53;;;;;;;72.68;22.27;;;10.20;99.90;;;;;;4814682;29;20245;-86
2022/01/29 11:05:36;;;;;;;72.78;21.88;;;10.30;99.90;;;;;;4821091;29;20197;-87
2022/01/29 11:08:24;;;;;;;85.45;41.83;;;10.30;99.90;;;;;;4805951;29;20189;-87
2022/01/29 11:11:17;;;;;;;73.15;21.88;;;10.30;99.90;;;;;;4844822;29;20195;-86
2022/01/29 11:14:07;;;;;;;77.05;32.10;;;10.30;99.90;;;;;;4889796;29;20181;-87
2022/01/29 11:16:57;;;;;;;76.97;33.60;;;10.30;99.90;;;;;;4937952;29;20264;-87
2022/01/29 11:19:35;;;;;;;85.97;46.92;;;10.30;99.90;;;;;;4936656;29;20271;-86
2022/01/29 11:22:10;;;;;;;86.40;49.72;;;10.20;99.90;;;;;;4936726;29;20203;-86
2022/01/29 11:25:04;;;;;;;75.40;31.25;;;10.20;99.90;;;;;;4936904;29;20195;-86
2022/01/29 11:28:15;;;;;;;74.22;26.35;;;10.20;99.90;;;;;;4936384;29;20271;-87
2022/01/29 11:30:43;;;;;;;89.43;58.20;;;10.10;99.90;;;;;;4939264;29;20180;-86
2022/01/29 11:36:14;;;;;;;81.28;43.35;;;9.90;99.90;;;;;;4938003;29;20200;-86
2022/01/29 11:38:52;;;;;;;90.75;76.30;;;10.00;99.90;;;;;;4937859;29;20175;-87
2022/01/29 11:41:35;;;;;;;95.70;77.57;;;9.90;99.90;;;;;;4938224;29;20211;-87
2022/01/29 11:44:27;;;;;;;98.03;84.68;;;9.90;99.90;;;;;;4937101;29;20534;-87
2022/01/29 11:50:32;;;;;;;106.45;95.57;;;9.90;99.90;;;;;;4917179;29;20173;-87
2022/01/29 11:54:25;;;;;;;;;;;;;;;;;;;;;
2022/01/29 11:57:14;;;;;;;102.32;90.75;;;9.90;99.90;;;;;;4895281;29;20289;-87
2022/01/29 12:00:14;;;;;;;112.90;101.25;;;9.90;99.90;;;;;;4877484;29;20214;-86
2022/01/29 12:07:03;;;;;;;91.38;75.45;;;9.80;99.90;;;;;;4860550;29;20195;-87
2022/01/29 12:10:43;;;;;;;82.22;49.95;;;9.80;99.90;;;;;;4803726;29;20176;-87
2022/01/29 12:13:33;;;;;;;85.85;58.42;;;9.80;99.90;;;;;;4800687;29;20264;-87
2022/01/29 12:16:40;;;;;;;83.57;51.78;;;10.00;99.90;;;;;;4845963;29;20278;-88
2022/01/29 12:22:51;;;;;;;84.03;50.88;;;10.20;99.90;;;;;;4898349;29;20812;-87
2022/01/29 12:25:28;;;;;;;93.20;77.40;;;10.20;99.90;;;;;;4897490;29;20194;-87
2022/01/29 12:27:59;;;;;;;101.80;90.72;;;10.20;99.90;;;;;;4882184;29;20641;-82
2022/01/29 12:31:09;;;;;;;98.28;82.47;;;10.20;99.90;;;;;;4898315;29;20646;-88
2022/01/29 12:38:10;;;;;;;90.50;72.03;;;10.10;99.90;;;;;;4898252;29;20566;-88
2022/01/29 12:44:40;;;;;;;96.95;78.10;;;10.10;99.90;;;;;;4860551;29;20223;-86
2022/01/29 12:47:06;;;;;;;88.75;67.97;;;10.00;99.90;;;;;;4860630;29;20168;-86
2022/01/29 12:50:02;;;;;;;97.95;82.88;;;10.00;99.90;;;;;;4899399;29;20188;-85
2022/01/29 12:52:50;;;;;;;84.85;56.72;;;10.00;99.90;;;;;;4932150;29;20211;-86
2022/01/29 12:55:23;;;;;;;90.65;63.67;;;9.90;99.90;;;;;;4937158;29;20196;-86
2022/01/29 12:57:49;;;;;;;84.50;54.78;;;9.90;99.90;;;;;;4937043;29;20208;-86
2022/01/29 13:00:21;;;;;;;86.25;61.38;;;9.80;99.90;;;;;;4937359;29;20630;-86
2022/01/29 13:03:14;;;;;;;81.45;45.90;;;9.90;99.90;;;;;;4937598;29;20609;-86
2022/01/29 13:05:47;;;;;;;82.00;47.67;;;9.90;99.90;;;;;;4936449;29;20614;-86
2022/01/29 13:08:42;;;;;;;77.97;35.63;;;10.00;99.90;;;;;;4935819;29;20156;-86
2022/01/29 13:11:48;;;;;;;87.70;52.58;;;10.10;99.90;;;;;;4937740;29;20159;-86
2022/01/29 13:14:43;;;;;;;81.32;47.38;;;10.20;99.90;;;;;;4937052;29;20520;-86
2022/01/29 13:17:44;;;;;;;90.88;66.03;;;10.30;99.90;;;;;;4936560;29;20164;-86
2022/01/29 13:20:28;;;;;;;90.20;71.32;;;10.40;99.90;;;;;;4935018;29;20188;-87
2022/01/29 13:23:37;;;;;;;91.35;74.88;;;10.50;99.90;;;;;;4936008;29;20188;-86
2022/01/29 13:26:19;;;;;;;84.38;53.78;;;10.60;99.90;;;;;;4936020;29;20600;-86
2022/01/29 13:29:09;;;;;;;83.32;51.42;;;10.60;99.90;;;;;;4936768;29;20200;-87
2022/01/29 13:31:55;;;;;;;86.80;57.22;;;10.60;99.90;;;;;;4936260;29;20173;-86
2022/01/29 13:34:53;;;;;;;84.72;44.58;;;10.70;99.90;;;;;;4935130;29;20542;-86
2022/01/29 13:37:58;;;;;;;74.70;26.13;;;10.70;99.90;;;;;;4935524;29;20264;-87
2022/01/29 13:40:53;;;;;;;74.00;24.10;;;10.70;99.90;;;;;;4935755;29;20186;-86
2022/01/29 13:43:34;;;;;;;72.53;20.42;;;10.70;99.90;;;;;;4935628;29;20575;-87
2022/01/29 13:49:02;;;;;;;75.22;26.15;;;10.70;99.90;;;;;;4959744;29;20299;-88
2022/01/29 13:51:38;;;;;;;73.97;24.08;;;10.70;99.90;;;;;;4958445;28;20539;-88
2022/01/29 13:54:36;;;;;;;75.40;28.00;;;10.80;99.90;;;;;;4958077;28;20187;-87
2022/01/29 13:57:06;;;;;;;78.55;25.88;;;10.80;99.90;;;;;;4931383;29;20192;-87
2022/01/29 13:59:32;;;;;;;76.35;25.20;;;10.80;99.90;;;;;;4939823;29;20540;-86
2022/01/29 14:02:04;;;;;;;78.50;33.50;;;10.80;99.90;;;;;;4938378;29;20196;-87
2022/01/29 14:04:37;;;;;;;76.55;27.65;;;10.80;99.90;;;;;;4939023;29;20443;-87
2022/01/29 14:07:14;;;;;;;80.97;42.63;;;10.80;99.90;;;;;;4940963;29;20629;-87
2022/01/29 14:09:49;;;;;;;81.18;36.33;;;10.80;99.90;;;;;;4939099;29;20173;-87
2022/01/29 14:12:30;;;;;;;84.13;52.53;;;10.80;99.90;;;;;;4939429;29;20172;-87
2022/01/29 14:15:00;;;;;;;81.25;42.60;;;10.80;99.90;;;;;;4939213;29;20197;-88
2022/01/29 14:17:40;;;;;;;80.15;36.17;;;10.80;99.90;;;;;;4939164;29;20207;-88
2022/01/29 14:20:17;;;;;;;81.60;45.90;;;10.80;99.90;;;;;;4943152;29;20189;-87
2022/01/29 14:22:51;;;;;;;81.88;46.45;;;10.80;99.90;;;;;;4943537;29;20228;-87
2022/01/29 14:25:27;;;;;;;88.47;64.07;;;10.80;99.90;;;;;;4943147;29;20195;-88
2022/01/29 14:27:55;;;;;;;87.07;57.25;;;10.80;99.90;;;;;;4943955;29;20512;-88
2022/01/29 14:30:21;;;;;;;86.70;51.03;;;10.80;99.90;;;;;;4944531;29;20176;-87
2022/01/29 14:32:53;;;;;;;81.13;42.80;;;10.80;99.90;;;;;;4943361;29;20668;-87
2022/01/29 14:35:38;;;;;;;87.63;51.25;;;10.80;99.90;;;;;;4942431;29;20200;-87
2022/01/29 14:38:07;;;;;;;84.60;50.95;;;10.80;99.90;;;;;;4942370;29;20180;-87
2022/01/29 14:40:32;;;;;;;86.22;44.03;;;10.80;99.90;;;;;;4942114;29;20684;-87
2022/01/29 14:42:58;;;;;;;83.80;48.20;;;10.80;99.90;;;;;;4942394;29;20255;-86
2022/01/29 14:45:27;;;;;;;79.33;35.10;;;10.80;99.90;;;;;;4943196;29;20676;-87
2022/01/29 14:47:57;;;;;;;78.53;35.15;;;10.80;99.90;;;;;;4942482;29;20323;-88
2022/01/29 14:50:44;;;;;;;89.80;50.13;;;10.80;99.90;;;;;;4942829;29;20794;-88
2022/01/29 14:53:10;;;;;;;85.10;45.17;;;10.80;99.90;;;;;;4943772;29;20216;-87
2022/01/29 14:55:36;;;;;;;90.50;51.38;;;10.70;99.90;;;;;;4943732;29;20211;-88
2022/01/29 14:58:04;;;;;;;79.00;36.43;;;10.80;99.90;;;;;;4943673;29;20164;-87
2022/01/29 15:00:50;;;;;;;80.65;32.00;;;10.70;99.90;;;;;;4941543;29;20171;-88
2022/01/29 15:03:22;;;;;;;81.13;35.78;;;10.80;99.90;;;;;;4937037;29;20235;-88
2022/01/29 15:05:48;;;;;;;82.93;41.50;;;10.80;99.90;;;;;;4942269;29;20212;-88
2022/01/29 15:08:20;;;;;;;79.67;30.60;;;10.80;99.90;;;;;;4943700;29;20165;-88
2022/01/29 15:10:46;;;;;;;76.03;29.42;;;10.70;99.90;;;;;;4943705;29;20598;-88
2022/01/29 15:13:18;;;;;;;78.85;33.83;;;10.70;99.90;;;;;;4945133;29;20597;-88
2022/01/29 15:15:47;;;;;;;80.40;38.67;;;10.70;99.90;;;;;;4944150;29;20284;-88
2022/01/29 15:18:12;;;;;;;76.65;28.42;;;10.70;99.90;;;;;;4944420;29;20192;-88
2022/01/29 15:20:59;;;;;;;80.60;32.67;;;10.70;99.90;;;;;;4944649;29;20251;-86
2022/01/29 15:23:27;;;;;;;80.88;35.08;;;10.70;99.90;;;;;;4943183;29;20176;-88
2022/01/29 15:25:53;;;;;;;83.78;47.00;;;10.70;99.90;;;;;;4942396;29;20188;-88
2022/01/29 15:28:23;;;;;;;87.90;61.33;;;10.70;99.90;;;;;;4942635;29;20615;-88
2022/01/29 15:30:56;;;;;;;82.97;43.45;;;10.80;99.90;;;;;;4941016;29;20304;-87
2022/01/29 15:33:28;;;;;;;85.18;44.53;;;10.80;99.90;;;;;;4942851;29;20243;-87
2022/01/29 15:36:06;;;;;;;93.32;69.07;;;10.80;99.90;;;;;;4941342;29;20215;-88
2022/01/29 15:38:40;;;;;;;105.13;92.32;;;10.80;99.90;;;;;;4941461;29;20191;-88
2022/01/29 15:41:10;;;;;;;87.07;60.53;;;10.80;99.90;;;;;;4942896;29;20181;-88
2022/01/29 15:43:39;;;;;;;84.78;52.58;;;10.90;99.90;;;;;;4942836;29;20618;-88
2022/01/29 15:46:08;;;;;;;84.18;48.70;;;10.90;99.90;;;;;;4943197;29;20188;-88
2022/01/29 15:48:37;;;;;;;92.60;68.88;;;10.90;99.90;;;;;;4941927;29;20264;-88
2022/01/29 15:51:08;;;;;;;107.55;91.25;;;10.80;99.90;;;;;;4943779;29;20172;-87
2022/01/29 15:53:40;;;;;;;111.35;99.60;;;10.80;99.90;;;;;;4942357;29;20208;-88
2022/01/29 15:56:12;;;;;;;130.95;118.43;;;10.80;99.90;;;;;;4941960;29;20279;-88
2022/01/29 15:58:37;;;;;;;134.30;121.85;;;10.80;99.90;;;;;;4944510;29;20157;-88
2022/01/29 16:01:06;;;;;;;128.13;116.40;;;10.80;99.90;;;;;;4944722;29;20168;-88
2022/01/29 16:03:35;;;;;;;133.88;121.40;;;10.70;99.90;;;;;;4943639;29;20176;-87
2022/01/29 16:06:06;;;;;;;146.15;133.23;;;10.70;99.90;;;;;;4942546;29;20220;-87
2022/01/29 16:08:32;;;;;;;109.85;98.38;;;10.70;99.90;;;;;;4942055;29;20180;-88
2022/01/29 16:10:58;;;;;;;121.10;109.53;;;10.70;99.90;;;;;;4945089;29;20165;-87
2022/01/29 16:13:30;;;;;;;96.70;79.10;;;10.60;99.90;;;;;;4945436;29;20188;-87
2022/01/29 16:16:24;;;;;;;94.45;83.90;;;10.60;99.90;;;;;;4943667;29;20193;-87
2022/01/29 16:18:50;;;;;;;90.55;65.85;;;10.60;99.90;;;;;;4947691;29;20180;-87
2022/01/29 16:21:26;;;;;;;87.87;59.60;;;10.60;99.90;;;;;;4944470;29;20252;-88
2022/01/29 16:23:53;;;;;;;98.10;87.25;;;10.60;99.90;;;;;;4944060;29;20617;-88